Time;durP1;ratioP1;P1;durP2;ratioP2;P2;SDS_P1;SDS_P2;PMS_P1;PMS_P2;Temp;Humidity;BMP_temperature;BMP_pressure;BME280_temperature;BME280_humidity;BME280_pressure;Samples;Min_cycle;Max_cycle;Signal;HPM_P1;HPM_P2
2023/01/09 00:00:17;;;;;;;6.93;5.40;;;6.20;99.90;;;;;;6065293;23;20027;-85
2023/01/09 00:03:16;;;;;;;6.75;5.45;;;6.20;99.90;;;;;;6064114;23;20035;-87
2023/01/09 00:06:06;;;;;;;6.60;4.38;;;6.20;99.90;;;;;;6064784;23;20062;-87
2023/01/09 00:08:56;;;;;;;5.72;5.13;;;6.20;99.90;;;;;;6066869;23;20045;-88
2023/01/09 00:11:46;;;;;;;6.63;4.35;;;6.30;99.90;;;;;;6065703;23;20054;-86
2023/01/09 00:14:36;;;;;;;4.57;3.58;;;6.40;99.90;;;;;;6067325;23;20110;-85
2023/01/09 00:18:05;;;;;;;4.65;3.60;;;6.40;99.90;;;;;;6070144;23;20033;-87
2023/01/09 00:21:02;;;;;;;4.07;3.65;;;6.40;99.90;;;;;;6070528;23;20027;-85
2023/01/09 00:23:55;;;;;;;4.82;3.70;;;6.40;99.90;;;;;;6068690;23;20033;-88
2023/01/09 00:26:51;;;;;;;5.05;3.08;;;6.50;99.90;;;;;;6070213;23;20031;-87
2023/01/09 00:29:38;;;;;;;3.30;3.00;;;6.50;99.90;;;;;;6066712;23;20039;-84
2023/01/09 00:32:26;;;;;;;2.67;2.40;;;6.40;99.90;;;;;;6066298;23;20027;-87
2023/01/09 00:35:21;;;;;;;4.20;3.55;;;6.40;99.90;;;;;;6064140;23;20088;-87
2023/01/09 00:38:11;;;;;;;2.30;2.10;;;6.40;99.90;;;;;;6066274;23;20464;-87
2023/01/09 00:41:02;;;;;;;2.50;2.30;;;6.40;99.90;;;;;;6045252;23;20027;-87
2023/01/09 00:44:01;;;;;;;2.40;2.17;;;6.40;99.90;;;;;;6068745;23;20089;-89
2023/01/09 00:46:59;;;;;;;2.55;2.15;;;6.50;99.90;;;;;;6069480;23;20023;-88
2023/01/09 00:49:52;;;;;;;1.70;1.60;;;6.50;99.90;;;;;;6067544;23;20314;-87
2023/01/09 00:52:39;;;;;;;3.28;2.45;;;6.50;99.90;;;;;;6065926;23;20038;-88
2023/01/09 00:55:27;;;;;;;1.90;1.80;;;6.50;99.90;;;;;;6066884;23;20034;-86
2023/01/09 00:58:35;;;;;;;1.73;1.60;;;6.50;99.90;;;;;;6067474;23;20033;-88
2023/01/09 01:01:26;;;;;;;1.80;1.70;;;6.40;99.90;;;;;;6063323;23;20023;-89
2023/01/09 01:07:39;;;;;;;2.58;1.45;;;6.30;99.90;;;;;;6066865;23;20037;-87
2023/01/09 01:10:32;;;;;;;1.38;1.27;;;6.30;99.90;;;;;;6066292;23;20144;-87
2023/01/09 01:13:44;;;;;;;1.80;1.30;;;6.30;99.90;;;;;;6063932;23;20118;-87
2023/01/09 01:16:31;;;;;;;1.52;1.30;;;6.30;99.90;;;;;;6064917;23;20066;-88
2023/01/09 01:19:21;;;;;;;1.52;1.42;;;6.30;99.90;;;;;;6066909;23;20435;-87
2023/01/09 01:22:09;;;;;;;1.90;1.73;;;6.30;99.90;;;;;;6075234;23;20509;-88
2023/01/09 01:24:56;;;;;;;2.53;1.15;;;6.30;99.90;;;;;;6063482;23;20027;-87
2023/01/09 01:27:44;;;;;;;1.95;1.73;;;6.30;99.90;;;;;;6064721;23;20030;-88
2023/01/09 01:30:39;;;;;;;1.50;1.40;;;6.20;99.90;;;;;;6065567;23;20037;-86
2023/01/09 01:33:35;;;;;;;1.98;1.83;;;6.20;99.90;;;;;;6064960;23;20026;-88
2023/01/09 01:36:25;;;;;;;1.95;1.73;;;6.20;99.90;;;;;;6065744;23;20027;-86
2023/01/09 01:39:15;;;;;;;1.50;1.40;;;6.20;99.90;;;;;;6064571;23;20026;-85
2023/01/09 01:42:05;;;;;;;2.30;1.40;;;6.10;99.90;;;;;;6065442;23;20023;-85
2023/01/09 01:45:12;;;;;;;1.42;1.30;;;6.10;99.90;;;;;;6065061;23;20161;-85
2023/01/09 01:48:13;;;;;;;1.35;1.25;;;6.10;99.90;;;;;;6065041;23;20034;-86
2023/01/09 01:51:15;;;;;;;1.48;1.38;;;6.20;99.90;;;;;;6063310;23;20030;-85
2023/01/09 01:54:08;;;;;;;3.45;1.80;;;6.10;99.90;;;;;;6065341;23;20038;-85
2023/01/09 01:57:03;;;;;;;;;;;6.20;99.90;;;;;;6065302;23;20398;-85
2023/01/09 01:59:58;;;;;;;3.67;2.40;;;6.20;99.90;;;;;;6066453;23;19917;-85
2023/01/09 02:02:48;;;;;;;1.63;1.52;;;6.10;99.90;;;;;;6064174;23;20442;-86
2023/01/09 02:05:38;;;;;;;2.83;2.05;;;6.10;99.90;;;;;;6065261;23;20114;-87
2023/01/09 02:08:25;;;;;;;3.90;2.85;;;6.00;99.90;;;;;;6065765;23;20038;-85
2023/01/09 02:14:47;;;;;;;3.58;2.28;;;6.00;99.90;;;;;;6066396;23;20026;-87
2023/01/09 02:18:05;;;;;;;6.60;4.18;;;6.10;99.90;;;;;;6065622;23;20442;-85
2023/01/09 02:21:28;;;;;;;4.95;2.58;;;6.00;99.90;;;;;;6064184;23;20027;-87
2023/01/09 02:24:27;;;;;;;4.97;3.13;;;6.00;99.90;;;;;;6063493;23;20350;-85
2023/01/09 02:27:39;;;;;;;2.90;2.70;;;6.00;99.90;;;;;;6064474;23;20089;-86
2023/01/09 02:31:07;;;;;;;3.17;2.63;;;6.00;99.90;;;;;;6066045;23;20038;-88
2023/01/09 02:34:15;;;;;;;2.45;2.13;;;6.10;99.90;;;;;;6098136;23;20031;-87
2023/01/09 02:37:11;;;;;;;2.35;1.80;;;6.10;99.90;;;;;;6066040;23;20041;-86
2023/01/09 02:40:25;;;;;;;4.10;1.83;;;6.00;99.90;;;;;;6078227;23;20026;-84
2023/01/09 02:43:13;;;;;;;3.42;2.00;;;6.00;99.90;;;;;;6078925;23;20027;-86
2023/01/09 02:46:20;;;;;;;2.13;1.92;;;6.00;99.90;;;;;;6079154;23;20034;-84
2023/01/09 02:49:07;;;;;;;2.03;1.90;;;6.10;99.90;;;;;;6078536;23;20033;-87
2023/01/09 02:52:06;;;;;;;1.70;1.60;;;6.00;99.90;;;;;;6079982;23;20062;-88
2023/01/09 02:54:58;;;;;;;4.07;1.30;;;6.00;99.90;;;;;;6086866;23;20053;-88
2023/01/09 02:58:08;;;;;;;1.67;1.50;;;6.00;99.90;;;;;;6088974;23;20014;-88
2023/01/09 03:01:16;;;;;;;3.35;1.27;;;5.90;99.90;;;;;;6072696;23;20057;-87
2023/01/09 03:04:22;;;;;;;1.50;0.80;;;5.90;99.90;;;;;;6072931;23;20441;-86
2023/01/09 03:07:29;;;;;;;0.70;0.70;;;5.80;99.90;;;;;;6073586;23;20101;-88
2023/01/09 03:10:21;;;;;;;6.57;1.10;;;5.80;99.90;;;;;;6073355;23;20087;-86
2023/01/09 03:13:50;;;;;;;2.92;0.90;;;5.70;99.90;;;;;;6067139;23;20098;-86
2023/01/09 03:16:48;;;;;;;1.40;0.90;;;5.70;99.90;;;;;;6068694;23;20030;-85
2023/01/09 03:19:53;;;;;;;0.80;0.80;;;5.70;99.90;;;;;;6064544;23;20054;-87
2023/01/09 03:23:09;;;;;;;1.73;1.13;;;5.70;99.90;;;;;;6065814;23;20034;-87
2023/01/09 03:26:09;;;;;;;2.95;1.45;;;5.60;99.90;;;;;;6065531;23;20045;-85
2023/01/09 03:29:10;;;;;;;1.98;1.63;;;5.60;99.90;;;;;;6063090;23;20102;-85
2023/01/09 03:32:00;;;;;;;1.98;1.63;;;5.70;99.90;;;;;;6066465;23;20027;-86
2023/01/09 03:35:04;;;;;;;2.10;1.90;;;5.70;99.90;;;;;;6063612;23;20063;-86
2023/01/09 03:38:00;;;;;;;2.95;2.40;;;5.70;99.90;;;;;;6064324;23;20122;-88
2023/01/09 03:40:47;;;;;;;3.25;2.13;;;5.70;99.90;;;;;;6065392;23;20033;-86
2023/01/09 03:43:44;;;;;;;2.13;1.92;;;5.70;99.90;;;;;;6065367;23;20034;-87
2023/01/09 03:46:31;;;;;;;2.08;1.98;;;5.70;99.90;;;;;;6065233;23;20055;-86
2023/01/09 03:49:21;;;;;;;1.92;1.83;;;5.70;99.90;;;;;;6065569;23;20085;-85
2023/01/09 03:52:08;;;;;;;2.63;1.48;;;5.70;99.90;;;;;;6065479;23;20023;-86
2023/01/09 03:54:55;;;;;;;2.17;1.42;;;5.60;99.90;;;;;;6044757;23;20038;-86
2023/01/09 03:57:43;;;;;;;1.98;1.40;;;5.70;99.90;;;;;;6066714;23;20023;-87
2023/01/09 04:00:32;;;;;;;1.55;1.20;;;5.60;99.90;;;;;;6066154;23;20054;-86
2023/01/09 04:03:41;;;;;;;1.10;1.10;;;5.60;99.90;;;;;;6066340;23;20112;-87
2023/01/09 04:06:38;;;;;;;1.30;1.20;;;5.60;99.90;;;;;;6068214;23;20027;-87
2023/01/09 04:09:35;;;;;;;0.80;0.80;;;5.60;99.90;;;;;;6064556;23;20038;-91
2023/01/09 04:12:43;;;;;;;1.10;0.80;;;5.60;99.90;;;;;;6065064;23;20307;-84
2023/01/09 04:15:31;;;;;;;2.00;0.80;;;5.60;99.90;;;;;;6065117;23;20042;-84
2023/01/09 04:18:29;;;;;;;0.57;0.57;;;5.60;99.90;;;;;;6065028;23;20105;-86
2023/01/09 04:21:22;;;;;;;1.38;0.60;;;5.40;99.90;;;;;;6068587;23;20120;-85
2023/01/09 04:24:27;;;;;;;0.60;0.60;;;5.30;99.90;;;;;;6065432;23;20027;-88
2023/01/09 04:27:14;;;;;;;3.00;0.70;;;5.30;99.90;;;;;;6067011;23;20054;-85
2023/01/09 04:30:05;;;;;;;1.67;0.68;;;5.10;99.90;;;;;;6064725;23;20027;-84
2023/01/09 04:32:52;;;;;;;0.65;0.65;;;5.00;99.90;;;;;;6065042;23;20411;-86
2023/01/09 04:36:18;;;;;;;1.83;0.65;;;5.00;99.90;;;;;;6073684;23;20442;-88
2023/01/09 04:39:08;;;;;;;0.60;0.60;;;4.90;99.90;;;;;;6071195;23;20027;-84
2023/01/09 04:42:20;;;;;;;1.27;0.70;;;4.80;99.90;;;;;;6067268;23;20113;-87
2023/01/09 04:45:24;;;;;;;0.60;0.60;;;4.70;99.90;;;;;;6066946;23;20042;-88
2023/01/09 04:48:15;;;;;;;2.08;0.70;;;4.60;99.90;;;;;;6065796;23;20031;-86
2023/01/09 04:51:02;;;;;;;0.60;0.60;;;4.60;99.90;;;;;;6065724;23;20089;-85
2023/01/09 04:53:49;;;;;;;1.15;0.90;;;4.50;99.90;;;;;;6064433;23;20118;-90
2023/01/09 04:56:40;;;;;;;3.53;0.90;;;4.50;99.90;;;;;;6065295;23;20057;-89
2023/01/09 04:59:32;;;;;;;3.08;1.30;;;4.50;99.90;;;;;;6064509;23;20026;-91
2023/01/09 05:06:27;;;;;;;0.60;0.60;;;4.30;99.90;;;;;;6067007;23;20003;-87
2023/01/09 05:09:27;;;;;;;0.70;0.70;;;4.30;99.90;;;;;;6066211;23;20027;-89
2023/01/09 05:12:28;;;;;;;2.38;0.80;;;4.20;99.90;;;;;;6066281;23;20042;-87
2023/01/09 05:15:16;;;;;;;0.82;0.82;;;4.20;99.90;;;;;;6064654;23;20031;-86
2023/01/09 05:18:06;;;;;;;0.80;0.70;;;4.10;99.90;;;;;;6066762;23;20049;-87
2023/01/09 05:20:58;;;;;;;0.75;0.65;;;4.10;99.90;;;;;;6066107;23;20034;-89
2023/01/09 05:23:45;;;;;;;0.70;0.70;;;4.10;99.90;;;;;;6066755;23;20098;-85
2023/01/09 05:30:40;;;;;;;2.42;0.90;;;4.00;99.90;;;;;;6074023;23;20021;-88
2023/01/09 05:33:30;;;;;;;1.63;0.90;;;4.00;99.90;;;;;;6070677;23;20110;-89
2023/01/09 05:36:33;;;;;;;1.05;0.70;;;4.00;99.90;;;;;;6069032;23;20042;-92
2023/01/09 05:39:25;;;;;;;2.20;1.02;;;4.00;99.90;;;;;;6045162;23;20157;-86
2023/01/09 05:42:14;;;;;;;2.60;1.10;;;3.90;99.90;;;;;;6065960;23;20098;-87
2023/01/09 05:45:04;;;;;;;0.82;0.82;;;3.90;99.90;;;;;;6065613;23;20089;-88
2023/01/09 05:47:51;;;;;;;0.85;0.85;;;3.80;99.90;;;;;;6064099;23;20042;-89
2023/01/09 05:51:13;;;;;;;1.17;1.02;;;3.90;99.90;;;;;;6066243;23;20058;-90
2023/01/09 05:54:21;;;;;;;3.40;1.20;;;3.90;99.90;;;;;;6065856;23;20062;-88
2023/01/09 05:57:11;;;;;;;3.60;1.30;;;3.90;99.90;;;;;;6065139;23;20390;-87
2023/01/09 05:59:58;;;;;;;2.38;0.93;;;3.90;99.90;;;;;;6062082;23;20037;-87
2023/01/09 06:02:46;;;;;;;1.08;0.93;;;3.80;99.90;;;;;;6064877;23;20030;-86
2023/01/09 06:05:43;;;;;;;2.05;1.10;;;3.80;92.20;;;;;;6066641;23;20027;-86
2023/01/09 06:08:35;;;;;;;5.10;1.40;;;3.90;1.00;;;;;;6065942;23;20031;-87
2023/01/09 06:11:22;;;;;;;1.80;1.20;;;3.90;1.00;;;;;;6064223;23;20035;-87
2023/01/09 06:14:35;;;;;;;4.60;1.42;;;3.80;99.90;;;;;;6063838;23;20113;-88
2023/01/09 15:08:03;;;;;;;7.10;1.30;;;5.50;99.90;;;;;;6050805;22;2480330;-85
2023/01/09 15:10:55;;;;;;;1.98;1.40;;;5.40;1.00;;;;;;6054474;23;20034;-83
2023/01/09 15:13:48;;;;;;;2.00;1.10;;;5.40;1.00;;;;;;6066071;23;20141;-82
2023/01/09 15:16:36;;;;;;;1.40;1.30;;;5.30;16.80;;;;;;6066190;23;20031;-84
2023/01/09 15:19:23;;;;;;;4.97;1.30;;;5.30;99.90;;;;;;6066563;23;20029;-87
2023/01/09 15:22:31;;;;;;;1.85;1.23;;;5.30;99.90;;;;;;6042621;23;20034;-84
2023/01/09 15:25:34;;;;;;;3.30;1.25;;;5.20;99.90;;;;;;6045335;23;20030;-87
2023/01/09 15:28:33;;;;;;;3.28;1.50;;;5.10;99.90;;;;;;6046434;23;20309;-85
2023/01/09 15:31:23;;;;;;;1.98;1.10;;;5.00;99.90;;;;;;6065442;23;20101;-85
2023/01/09 15:34:19;;;;;;;1.40;1.30;;;4.90;99.90;;;;;;6045913;23;20115;-85
2023/01/09 15:37:39;;;;;;;4.43;1.60;;;4.80;99.90;;;;;;6045869;23;20076;-86
2023/01/09 15:40:34;;;;;;;3.55;1.33;;;4.70;99.90;;;;;;6067012;23;20061;-85
2023/01/09 15:43:22;;;;;;;2.38;1.45;;;4.60;99.90;;;;;;6067666;23;20034;-84
2023/01/09 15:46:14;;;;;;;2.20;1.15;;;4.50;99.90;;;;;;6071816;23;20030;-84
2023/01/09 15:49:01;;;;;;;3.83;1.30;;;4.40;99.90;;;;;;6064274;23;20098;-83
2023/01/09 15:51:52;;;;;;;1.73;1.52;;;4.30;1.00;;;;;;6050278;23;20102;-84
2023/01/09 15:54:44;;;;;;;2.67;1.60;;;4.20;1.00;;;;;;6028513;23;20027;-83
2023/01/09 15:57:34;;;;;;;7.20;1.73;;;4.20;1.00;;;;;;6064351;23;20394;-84
2023/01/09 16:00:40;;;;;;;3.20;1.52;;;4.20;1.00;;;;;;6044515;23;20054;-84
2023/01/09 16:03:30;;;;;;;3.95;2.25;;;4.20;1.00;;;;;;6046374;23;20117;-85
2023/01/09 16:06:28;;;;;;;4.88;2.22;;;4.20;1.00;;;;;;6064043;23;20057;-84
2023/01/09 16:09:17;;;;;;;3.38;2.00;;;4.10;1.00;;;;;;6064538;23;20425;-83
2023/01/09 16:12:27;;;;;;;3.22;2.00;;;4.00;1.00;;;;;;6065135;23;20050;-85
2023/01/09 16:15:19;;;;;;;3.13;1.75;;;3.90;1.00;;;;;;6065993;23;20377;-84
2023/01/09 16:18:23;;;;;;;5.55;3.75;;;3.90;1.00;;;;;;6065151;23;20102;-84
2023/01/09 16:21:42;;;;;;;1.65;1.40;;;4.00;8.80;;;;;;6046982;23;20034;-85
2023/01/09 16:24:41;;;;;;;3.33;1.90;;;4.10;19.90;;;;;;6047440;23;20116;-85
2023/01/09 16:27:34;;;;;;;2.97;1.80;;;4.10;64.10;;;;;;6067356;23;20027;-85
2023/01/09 16:30:26;;;;;;;3.17;2.20;;;4.00;99.90;;;;;;6045333;23;20411;-85
2023/01/09 16:33:33;;;;;;;2.78;1.48;;;3.90;1.00;;;;;;6047081;23;20022;-85
2023/01/09 16:36:21;;;;;;;1.88;1.70;;;3.80;99.90;;;;;;6046507;23;20062;-85
2023/01/09 16:39:15;;;;;;;8.70;3.97;;;3.70;1.00;;;;;;6067498;23;20031;-88
2023/01/09 16:45:14;;;;;;;2.15;1.73;;;3.50;20.40;;;;;;6069461;23;20031;-85
2023/01/09 16:48:20;;;;;;;4.10;1.88;;;3.40;99.90;;;;;;6055041;23;20031;-84
2023/01/09 16:51:20;;;;;;;3.50;1.80;;;3.30;99.90;;;;;;6054566;23;20031;-84
2023/01/09 16:54:09;;;;;;;5.50;2.17;;;3.20;24.00;;;;;;6076180;23;20089;-85
2023/01/09 16:56:56;;;;;;;7.05;3.40;;;3.20;99.90;;;;;;6063175;23;20023;-84
2023/01/09 16:59:44;;;;;;;9.55;5.10;;;3.10;7.40;;;;;;6053642;23;20098;-84
2023/01/09 17:02:32;;;;;;;10.68;4.82;;;3.10;99.90;;;;;;6069251;23;20125;-84
2023/01/09 17:05:20;;;;;;;4.03;2.38;;;3.10;1.00;;;;;;6067862;23;20110;-83
2023/01/09 17:08:35;;;;;;;4.40;2.28;;;3.10;58.30;;;;;;6050940;23;20034;-83
2023/01/09 17:11:30;;;;;;;7.45;3.70;;;3.00;99.90;;;;;;6046076;23;20315;-85
2023/01/09 17:14:18;;;;;;;5.25;3.30;;;3.00;99.90;;;;;;6066846;23;20102;-85
2023/01/09 17:17:11;;;;;;;5.63;3.40;;;3.00;99.90;;;;;;6054855;23;20038;-85
2023/01/09 17:19:58;;;;;;;6.35;3.50;;;3.00;99.90;;;;;;6061137;23;20031;-86
2023/01/09 17:22:48;;;;;;;4.22;3.22;;;3.00;1.00;;;;;;6056503;23;20031;-85
2023/01/09 17:28:49;;;;;;;5.18;2.88;;;3.10;1.00;;;;;;6066457;23;20027;-86
2023/01/09 17:31:37;;;;;;;6.60;3.33;;;3.10;1.00;;;;;;6045236;23;20034;-86
2023/01/09 17:34:25;;;;;;;9.02;4.55;;;3.10;1.00;;;;;;6044341;23;20031;-87
2023/01/09 17:37:17;;;;;;;12.52;6.72;;;3.10;1.00;;;;;;6044936;23;20489;-84
2023/01/09 17:40:20;;;;;;;8.25;4.50;;;3.10;1.00;;;;;;6064274;23;20038;-86
2023/01/09 17:43:11;;;;;;;6.38;3.60;;;3.10;1.00;;;;;;6023056;23;20350;-86
2023/01/09 17:45:58;;;;;;;7.25;4.43;;;3.10;1.00;;;;;;6062022;23;20481;-85
2023/01/09 17:48:48;;;;;;;16.10;7.68;;;3.20;1.00;;;;;;6041245;23;20422;-88
2023/01/09 17:51:40;;;;;;;8.13;4.28;;;3.20;1.00;;;;;;6044623;23;20035;-84
2023/01/09 17:54:27;;;;;;;6.78;2.50;;;3.20;1.00;;;;;;6069146;23;20027;-87
2023/01/09 17:57:16;;;;;;;10.68;4.20;;;3.20;1.00;;;;;;6045652;23;20122;-83
2023/01/09 18:00:05;;;;;;;10.98;5.28;;;3.20;1.00;;;;;;6045356;23;20031;-84
2023/01/09 18:02:57;;;;;;;5.72;3.75;;;3.20;1.00;;;;;;6065835;23;20101;-85
2023/01/09 18:05:45;;;;;;;9.77;4.30;;;3.10;1.00;;;;;;6048238;23;20023;-86
2023/01/09 18:08:35;;;;;;;7.38;4.25;;;3.10;1.00;;;;;;6045342;23;20031;-84
2023/01/09 18:11:22;;;;;;;5.28;2.95;;;3.10;1.00;;;;;;6073791;23;20022;-86
2023/01/09 18:14:11;;;;;;;7.88;2.90;;;3.10;2.00;;;;;;6045669;23;20031;-86
2023/01/09 18:17:04;;;;;;;4.28;2.80;;;3.10;39.30;;;;;;6046522;23;20461;-84
2023/01/09 18:19:53;;;;;;;4.40;1.88;;;3.10;56.20;;;;;;6068870;23;20291;-86
2023/01/09 18:22:41;;;;;;;2.50;1.95;;;3.20;95.60;;;;;;6065734;23;20034;-87
2023/01/09 18:25:29;;;;;;;5.30;2.70;;;3.20;99.90;;;;;;6044898;23;20058;-85
2023/01/09 18:28:19;;;;;;;3.15;2.15;;;3.30;99.90;;;;;;6072207;23;20023;-90
2023/01/09 18:31:12;;;;;;;3.63;2.22;;;3.30;99.90;;;;;;6053531;23;20023;-87
2023/01/09 18:34:04;;;;;;;5.22;2.50;;;3.30;99.90;;;;;;6068850;23;20023;-88
2023/01/09 18:36:59;;;;;;;3.35;2.25;;;3.30;99.90;;;;;;6071355;23;20027;-85
2023/01/09 18:39:49;;;;;;;6.78;2.40;;;3.30;99.90;;;;;;6060931;23;20422;-88
2023/01/09 18:42:39;;;;;;;4.55;2.13;;;3.30;99.90;;;;;;6058731;23;20030;-88
2023/01/09 18:45:28;;;;;;;7.03;2.50;;;3.20;99.90;;;;;;6029378;23;20037;-84
2023/01/09 18:48:26;;;;;;;3.10;2.45;;;3.30;99.90;;;;;;6071460;23;20043;-84
2023/01/09 18:51:15;;;;;;;5.22;2.80;;;3.20;99.90;;;;;;6029478;23;20106;-85
2023/01/09 18:54:10;;;;;;;4.55;2.22;;;3.20;99.90;;;;;;6071342;23;20248;-89
2023/01/09 18:57:11;;;;;;;4.28;2.70;;;3.20;99.90;;;;;;6046289;23;20037;-89
2023/01/09 18:59:58;;;;;;;3.08;2.50;;;3.20;99.90;;;;;;6028249;23;20031;-87
2023/01/09 19:02:49;;;;;;;5.28;2.83;;;3.20;99.90;;;;;;6064062;23;20023;-89
2023/01/09 19:05:37;;;;;;;5.35;3.40;;;3.20;99.90;;;;;;6045584;23;20023;-85
2023/01/09 19:08:31;;;;;;;9.30;3.25;;;3.20;99.90;;;;;;6045491;23;20027;-88
2023/01/09 19:11:21;;;;;;;8.75;4.97;;;3.20;99.90;;;;;;6047785;23;20090;-86
2023/01/09 19:14:10;;;;;;;6.10;4.90;;;3.10;99.90;;;;;;6047154;23;20102;-89
2023/01/09 19:17:01;;;;;;;7.00;3.55;;;3.10;99.90;;;;;;6046224;23;20018;-87
2023/01/09 19:19:49;;;;;;;14.20;8.13;;;3.10;99.90;;;;;;6048688;23;20058;-86
2023/01/09 19:22:40;;;;;;;4.07;2.75;;;3.10;99.90;;;;;;6046770;23;20342;-87
2023/01/09 19:25:28;;;;;;;4.03;2.83;;;3.10;99.90;;;;;;6069370;23;20121;-88
2023/01/09 19:28:20;;;;;;;5.03;3.78;;;3.10;99.90;;;;;;6066253;23;20438;-86
2023/01/09 19:31:07;;;;;;;7.22;4.32;;;3.10;99.90;;;;;;6069196;23;20041;-85
2023/01/09 19:33:56;;;;;;;7.32;4.32;;;3.10;99.90;;;;;;6045840;23;20037;-86
2023/01/09 19:36:47;;;;;;;9.00;5.45;;;3.10;99.90;;;;;;6045776;23;20055;-86
2023/01/09 19:39:36;;;;;;;10.32;5.50;;;3.00;99.90;;;;;;6065311;23;20039;-85
2023/01/09 19:42:23;;;;;;;5.53;3.28;;;3.10;99.90;;;;;;6045168;23;20031;-85
2023/01/09 19:45:11;;;;;;;4.80;2.35;;;3.00;99.90;;;;;;6044057;23;20382;-88
2023/01/09 19:48:08;;;;;;;3.97;2.83;;;3.10;99.90;;;;;;6046736;23;20066;-85
2023/01/09 19:51:06;;;;;;;4.38;3.20;;;3.10;99.90;;;;;;6006186;23;20030;-87
2023/01/09 19:53:59;;;;;;;5.38;3.17;;;3.10;99.90;;;;;;6066028;23;20034;-85
2023/01/09 19:56:49;;;;;;;9.88;5.57;;;3.00;99.90;;;;;;6065449;23;20023;-86
2023/01/09 19:59:39;;;;;;;3.97;3.13;;;3.00;99.90;;;;;;6045376;23;20031;-88
2023/01/09 20:02:26;;;;;;;5.25;3.42;;;3.00;99.90;;;;;;6044030;23;20042;-87
2023/01/09 20:05:14;;;;;;;10.68;4.95;;;3.00;99.90;;;;;;6063882;23;20120;-85
2023/01/09 20:08:07;;;;;;;6.45;4.38;;;3.00;99.90;;;;;;6065978;23;20046;-86
2023/01/09 20:11:01;;;;;;;;;;;3.00;99.90;;;;;;6046341;23;20030;-85
2023/01/09 20:13:55;;;;;;;5.75;3.55;;;3.00;99.90;;;;;;6064401;23;20663;-85
2023/01/09 20:17:03;;;;;;;5.30;2.75;;;3.00;99.90;;;;;;6031313;23;20058;-86
2023/01/09 20:19:51;;;;;;;5.57;2.40;;;3.00;99.90;;;;;;6064513;23;20031;-86
2023/01/09 20:22:38;;;;;;;12.90;6.68;;;3.00;99.90;;;;;;6047013;23;20027;-86
2023/01/09 20:25:28;;;;;;;3.92;2.80;;;3.00;99.90;;;;;;6065145;23;20026;-87
2023/01/09 20:28:21;;;;;;;6.57;4.60;;;3.00;99.90;;;;;;6049933;23;20046;-85
2023/01/09 20:31:10;;;;;;;8.90;4.88;;;3.10;99.90;;;;;;6070232;23;20027;-88
2023/01/09 20:34:02;;;;;;;2.72;2.17;;;3.00;99.90;;;;;;6051783;23;20033;-86
2023/01/09 20:36:49;;;;;;;8.63;4.20;;;3.00;99.90;;;;;;6071649;23;20446;-85
2023/01/09 20:39:37;;;;;;;8.73;4.18;;;3.00;99.90;;;;;;6051143;23;20149;-87
2023/01/09 20:42:26;;;;;;;10.05;5.20;;;3.00;99.90;;;;;;6071983;23;20307;-86
2023/01/09 20:45:14;;;;;;;10.85;5.75;;;3.10;99.90;;;;;;6064933;23;20041;-86
2023/01/09 20:48:01;;;;;;;5.82;3.92;;;3.00;99.90;;;;;;6065924;23;20035;-87
2023/01/09 20:50:49;;;;;;;5.85;3.70;;;3.10;99.90;;;;;;6046094;23;20042;-85
2023/01/09 20:53:36;;;;;;;9.82;5.30;;;3.10;99.90;;;;;;6045035;23;20431;-86
2023/01/09 20:56:29;;;;;;;4.40;2.67;;;3.10;99.90;;;;;;6045961;23;20027;-85
2023/01/09 20:59:21;;;;;;;4.28;3.03;;;3.10;99.90;;;;;;6065398;23;20035;-85
2023/01/09 21:02:13;;;;;;;5.63;3.45;;;3.10;99.90;;;;;;6067096;23;20090;-85
2023/01/09 21:05:01;;;;;;;4.47;3.15;;;3.00;99.90;;;;;;6050051;23;20038;-84
2023/01/09 21:07:48;;;;;;;8.48;3.85;;;3.10;99.90;;;;;;6045011;23;20031;-85
2023/01/09 21:10:38;;;;;;;10.75;6.13;;;3.00;99.90;;;;;;6045647;23;20050;-84
2023/01/09 21:13:26;;;;;;;10.60;4.97;;;3.10;99.90;;;;;;6068166;23;20037;-87
2023/01/09 21:16:18;;;;;;;6.75;3.20;;;3.10;99.90;;;;;;6047837;23;20023;-84
2023/01/09 21:19:06;;;;;;;3.95;2.72;;;3.10;99.90;;;;;;6045281;23;20042;-84
2023/01/09 21:21:53;;;;;;;9.25;3.30;;;3.10;99.90;;;;;;6043855;23;20033;-84
2023/01/09 21:24:46;;;;;;;7.43;3.95;;;3.10;99.90;;;;;;6064724;23;20031;-85
2023/01/09 21:27:49;;;;;;;10.77;4.72;;;3.10;99.90;;;;;;6044797;23;20018;-84
2023/01/09 21:30:37;;;;;;;7.78;3.72;;;3.20;99.90;;;;;;6034624;23;20422;-85
2023/01/09 21:33:25;;;;;;;8.20;3.95;;;3.10;99.90;;;;;;6046290;23;20023;-85
2023/01/09 21:36:13;;;;;;;6.15;2.60;;;3.10;99.90;;;;;;6043946;23;20361;-85
2023/01/09 21:39:03;;;;;;;9.45;3.45;;;3.10;99.90;;;;;;6045309;23;20080;-85
2023/01/09 21:48:14;;;;;;;5.45;2.88;;;3.00;99.90;;;;;;6064765;23;20023;-84
2023/01/09 21:51:05;;;;;;;5.22;2.50;;;3.00;99.90;;;;;;6065974;23;20292;-85
2023/01/09 21:53:52;;;;;;;5.53;2.95;;;3.00;99.90;;;;;;6046352;23;20023;-86
2023/01/09 21:56:40;;;;;;;7.43;3.35;;;3.00;99.90;;;;;;6044327;23;20022;-84
2023/01/09 21:59:28;;;;;;;7.10;3.25;;;3.00;99.90;;;;;;6045818;23;20031;-85
2023/01/09 22:02:22;;;;;;;7.22;3.13;;;3.10;99.90;;;;;;6043444;23;20031;-84
2023/01/09 22:05:11;;;;;;;4.13;2.67;;;3.00;99.90;;;;;;6045625;23;20034;-85
2023/01/09 22:08:00;;;;;;;14.60;3.28;;;3.00;99.90;;;;;;6064367;23;20045;-85
2023/01/09 22:10:59;;;;;;;6.50;2.90;;;3.00;99.90;;;;;;6063135;23;20038;-85
2023/01/09 22:13:48;;;;;;;7.43;3.00;;;2.90;99.90;;;;;;6063180;23;20041;-84
2023/01/09 22:16:40;;;;;;;13.90;5.18;;;2.90;99.90;;;;;;6044543;23;20407;-85
2023/01/09 22:19:27;;;;;;;9.73;4.43;;;2.90;99.90;;;;;;6045244;23;20031;-85
2023/01/09 22:22:14;;;;;;;9.05;3.00;;;2.80;99.90;;;;;;6049822;23;20084;-86
2023/01/09 22:25:02;;;;;;;8.23;2.92;;;2.80;99.90;;;;;;6045051;23;20453;-85
2023/01/09 22:27:49;;;;;;;11.00;3.38;;;2.80;99.90;;;;;;6064056;23;20035;-85
2023/01/09 22:30:51;;;;;;;10.98;3.00;;;2.90;99.90;;;;;;6064297;23;20027;-84
2023/01/09 22:33:39;;;;;;;5.30;3.35;;;3.00;99.90;;;;;;6045322;23;20023;-85
2023/01/09 22:36:31;;;;;;;5.22;2.90;;;3.00;99.90;;;;;;6043744;23;20112;-84
2023/01/09 22:39:18;;;;;;;3.80;1.92;;;3.10;99.90;;;;;;6024378;23;20042;-85
2023/01/09 22:42:06;;;;;;;3.78;1.88;;;3.10;99.90;;;;;;6051135;23;20041;-85
2023/01/09 22:45:11;;;;;;;3.00;2.17;;;3.20;99.90;;;;;;6048095;23;20074;-84
2023/01/09 22:48:01;;;;;;;11.05;3.30;;;3.30;99.90;;;;;;6064629;23;20030;-84
2023/01/09 22:50:49;;;;;;;5.65;3.22;;;3.30;99.90;;;;;;6045391;23;20088;-83
2023/01/09 22:53:36;;;;;;;2.97;2.33;;;3.30;99.90;;;;;;6064754;23;20070;-85
2023/01/09 22:56:24;;;;;;;5.63;3.08;;;3.30;99.90;;;;;;6064033;23;20037;-85
2023/01/09 22:59:11;;;;;;;6.65;2.35;;;3.30;99.90;;;;;;6042945;23;20027;-84
2023/01/09 23:01:58;;;;;;;2.53;1.70;;;3.30;99.90;;;;;;6045976;23;20026;-85
2023/01/09 23:04:46;;;;;;;6.18;2.72;;;3.30;99.90;;;;;;6067794;23;20046;-87
2023/01/09 23:07:33;;;;;;;3.25;1.77;;;3.30;99.90;;;;;;6048368;23;20027;-86
2023/01/09 23:10:21;;;;;;;3.03;2.03;;;3.20;99.90;;;;;;6065147;23;20648;-86
2023/01/09 23:13:11;;;;;;;4.38;1.75;;;3.20;99.90;;;;;;6064907;23;20103;-87
2023/01/09 23:16:01;;;;;;;2.15;1.33;;;3.30;99.90;;;;;;6042932;23;20027;-85
2023/01/09 23:18:48;;;;;;;2.72;1.50;;;3.30;99.90;;;;;;6044118;23;20062;-86
2023/01/09 23:21:36;;;;;;;1.83;1.25;;;3.20;99.90;;;;;;6063155;23;20035;-86
2023/01/09 23:24:23;;;;;;;2.75;1.58;;;3.20;99.90;;;;;;6063683;23;20038;-86
2023/01/09 23:27:11;;;;;;;1.77;1.55;;;3.20;99.90;;;;;;6044301;23;20035;-86
2023/01/09 23:29:58;;;;;;;3.17;1.40;;;3.20;99.90;;;;;;6063696;23;20058;-87
2023/01/09 23:32:52;;;;;;;2.25;1.92;;;3.20;99.90;;;;;;6071452;23;20038;-87
2023/01/09 23:35:40;;;;;;;7.95;2.15;;;3.20;99.90;;;;;;6073405;23;20023;-86
2023/01/09 23:38:29;;;;;;;6.15;2.40;;;3.10;99.90;;;;;;6070660;23;20031;-87
2023/01/09 23:41:16;;;;;;;6.18;2.60;;;3.10;99.90;;;;;;6046627;23;20498;-86
2023/01/09 23:44:04;;;;;;;6.50;2.38;;;3.10;99.90;;;;;;6072576;23;20058;-87
2023/01/09 23:47:08;;;;;;;3.78;1.83;;;3.00;99.90;;;;;;6047342;23;20074;-87
2023/01/09 23:50:22;;;;;;;4.90;1.77;;;3.00;99.90;;;;;;6067094;23;20018;-86
2023/01/09 23:53:10;;;;;;;5.38;1.60;;;3.00;99.90;;;;;;6067686;23;20027;-86
2023/01/09 23:56:00;;;;;;;5.75;1.65;;;3.00;99.90;;;;;;6044782;23;20642;-86
2023/01/09 23:58:47;;;;;;;2.15;1.60;;;3.00;99.90;;;;;;6045598;23;20027;-86
